Time;durP1;ratioP1;P1;durP2;ratioP2;P2;SDS_P1;SDS_P2;PMS_P1;PMS_P2;Temp;Humidity;BMP_temperature;BMP_pressure;BME280_temperature;BME280_humidity;BME280_pressure;Samples;Min_cycle;Max_cycle;Signal;HPM_P1;HPM_P2
2022/08/30 00:02:23;;;;;;;4.30;2.87;;;17.90;99.90;;;;;;5096482;28;20813;-54
2022/08/30 00:04:50;;;;;;;4.90;2.90;;;17.80;99.90;;;;;;5099366;28;20465;-61
2022/08/30 00:07:17;;;;;;;3.10;2.80;;;17.80;99.90;;;;;;5099303;28;20449;-60
2022/08/30 00:09:44;;;;;;;2.60;2.20;;;17.80;99.90;;;;;;5096650;28;20445;-59
2022/08/30 00:12:11;;;;;;;5.17;3.37;;;17.70;99.90;;;;;;5096637;28;20440;-59
2022/08/30 00:14:39;;;;;;;4.50;3.23;;;17.70;99.90;;;;;;5096410;28;20484;-60
2022/08/30 00:17:06;;;;;;;4.00;2.70;;;17.70;99.90;;;;;;5097000;28;20480;-57
2022/08/30 00:19:33;;;;;;;4.53;3.10;;;17.70;99.90;;;;;;5096740;28;20975;-59
2022/08/30 00:22:00;;;;;;;4.30;3.20;;;17.60;99.90;;;;;;5096155;28;20918;-58
2022/08/30 00:24:30;;;;;;;3.37;2.50;;;17.60;99.90;;;;;;5096317;28;20437;-60
2022/08/30 00:26:57;;;;;;;3.63;3.07;;;17.60;99.90;;;;;;5096677;28;20992;-60
2022/08/30 00:29:24;;;;;;;3.10;2.60;;;17.60;99.90;;;;;;5095988;28;21028;-61
2022/08/30 00:31:53;;;;;;;3.67;3.03;;;17.60;99.90;;;;;;5096336;28;20465;-60
2022/08/30 00:34:19;;;;;;;5.63;2.93;;;17.60;99.90;;;;;;5095993;28;20539;-57
2022/08/30 00:36:47;;;;;;;4.20;3.00;;;17.60;99.90;;;;;;5098245;28;20437;-56
2022/08/30 00:39:14;;;;;;;3.70;2.67;;;17.60;99.90;;;;;;5096822;28;20475;-59
2022/08/30 00:41:41;;;;;;;4.17;3.57;;;17.60;99.90;;;;;;5095917;28;21028;-57
2022/08/30 00:44:08;;;;;;;4.03;3.00;;;17.50;99.90;;;;;;5095977;28;20453;-54
2022/08/30 00:46:35;;;;;;;3.60;2.70;;;17.50;99.90;;;;;;5096476;28;20791;-57
2022/08/30 00:49:07;;;;;;;4.37;3.13;;;17.50;99.90;;;;;;5095539;28;20439;-56
2022/08/30 00:51:34;;;;;;;3.90;3.20;;;17.50;99.90;;;;;;5095933;28;20828;-60
2022/08/30 00:54:03;;;;;;;6.13;3.80;;;17.50;99.90;;;;;;5096260;28;20483;-60
2022/08/30 00:56:31;;;;;;;3.10;2.70;;;17.50;99.90;;;;;;5095719;28;20453;-57
2022/08/30 00:59:01;;;;;;;3.00;2.43;;;17.40;99.90;;;;;;5095559;28;20904;-58
2022/08/30 01:01:29;;;;;;;4.07;3.30;;;17.40;99.90;;;;;;5096531;28;20444;-59
2022/08/30 01:03:56;;;;;;;4.97;3.30;;;17.40;99.90;;;;;;5099047;28;20445;-62
2022/08/30 01:06:24;;;;;;;4.00;3.03;;;17.40;99.90;;;;;;5096842;28;20761;-60
2022/08/30 01:08:52;;;;;;;4.30;2.80;;;17.40;99.90;;;;;;5095531;28;20526;-55
2022/08/30 01:11:22;;;;;;;3.50;2.60;;;17.40;99.90;;;;;;5095585;28;20501;-57
2022/08/30 01:13:51;;;;;;;3.67;2.93;;;17.40;99.90;;;;;;5095869;28;20886;-53
2022/08/30 01:16:19;;;;;;;3.57;3.27;;;17.40;99.90;;;;;;5095685;28;20441;-60
2022/08/30 01:18:46;;;;;;;3.43;3.10;;;17.40;99.90;;;;;;5095635;28;20532;-60
2022/08/30 01:21:20;;;;;;;4.47;3.03;;;17.30;99.90;;;;;;5095762;28;20480;-55
2022/08/30 01:23:50;;;;;;;3.37;2.57;;;17.30;99.90;;;;;;5095704;28;20476;-59
2022/08/30 01:26:18;;;;;;;8.10;3.30;;;17.30;99.90;;;;;;5095723;28;20477;-59
2022/08/30 01:28:48;;;;;;;5.53;3.40;;;17.20;99.90;;;;;;5095741;28;20446;-56
2022/08/30 01:31:16;;;;;;;3.70;3.13;;;17.30;99.90;;;;;;5097098;28;20459;-65
2022/08/30 01:33:43;;;;;;;3.30;2.80;;;17.30;99.90;;;;;;5097545;28;20466;-60
2022/08/30 01:36:14;;;;;;;3.67;3.13;;;17.30;99.90;;;;;;5095480;28;20469;-60
2022/08/30 01:38:46;;;;;;;5.13;3.67;;;17.30;99.90;;;;;;5095379;28;20454;-56
2022/08/30 01:41:18;;;;;;;4.57;3.73;;;17.30;99.90;;;;;;5095115;28;20457;-60
2022/08/30 01:43:45;;;;;;;5.67;3.90;;;17.30;99.90;;;;;;5095131;28;20548;-55
2022/08/30 01:46:17;;;;;;;3.27;2.70;;;17.30;99.90;;;;;;5095373;28;20449;-60
2022/08/30 01:48:47;;;;;;;3.83;3.17;;;17.30;99.90;;;;;;5095316;28;20437;-60
2022/08/30 01:51:15;;;;;;;4.03;2.97;;;17.30;99.90;;;;;;5095215;28;20463;-54
2022/08/30 01:53:44;;;;;;;5.07;3.70;;;17.30;99.90;;;;;;5095103;28;20483;-60
2022/08/30 01:56:11;;;;;;;6.83;4.33;;;17.30;99.90;;;;;;5095450;28;20453;-60
2022/08/30 01:58:40;;;;;;;5.13;3.90;;;17.30;99.90;;;;;;5095130;28;20951;-60
2022/08/30 02:01:11;;;;;;;4.80;3.60;;;17.30;99.90;;;;;;5097663;28;20480;-56
2022/08/30 02:03:41;;;;;;;8.00;3.67;;;17.20;99.90;;;;;;5099084;28;20507;-59
2022/08/30 02:06:11;;;;;;;4.97;4.20;;;17.20;99.90;;;;;;5100027;28;20495;-60
2022/08/30 02:08:39;;;;;;;5.53;3.77;;;17.20;99.90;;;;;;5100292;28;20475;-58
2022/08/30 02:11:08;;;;;;;4.77;3.50;;;17.20;99.90;;;;;;5099495;28;20445;-55
2022/08/30 02:13:40;;;;;;;5.27;3.83;;;17.20;99.90;;;;;;5099538;28;20436;-60
2022/08/30 02:16:08;;;;;;;5.50;3.80;;;17.20;99.90;;;;;;5099978;28;20461;-61
2022/08/30 02:18:37;;;;;;;4.97;4.47;;;17.20;99.90;;;;;;5103589;28;20461;-61
2022/08/30 02:21:04;;;;;;;5.70;3.70;;;17.20;99.90;;;;;;5101094;28;20472;-60
2022/08/30 02:23:35;;;;;;;5.67;5.17;;;17.20;99.90;;;;;;5099047;28;20472;-60
2022/08/30 02:26:05;;;;;;;9.43;3.70;;;17.20;99.90;;;;;;5099081;28;20439;-60
2022/08/30 02:28:32;;;;;;;7.47;4.10;;;17.20;99.90;;;;;;5098556;28;20997;-58
2022/08/30 02:31:01;;;;;;;4.60;3.77;;;17.20;99.90;;;;;;5098129;28;20441;-56
2022/08/30 02:33:28;;;;;;;4.80;3.60;;;17.30;99.90;;;;;;5098452;28;21132;-57
2022/08/30 02:35:55;;;;;;;5.40;4.00;;;17.30;99.90;;;;;;5098365;28;20487;-54
2022/08/30 02:38:23;;;;;;;5.07;3.90;;;17.30;99.90;;;;;;5098300;28;21020;-62
2022/08/30 02:40:50;;;;;;;6.10;4.33;;;17.30;99.90;;;;;;5099993;28;20480;-61
2022/08/30 02:43:17;;;;;;;6.00;4.67;;;17.30;99.90;;;;;;5102170;28;20480;-60
2022/08/30 02:45:44;;;;;;;7.33;3.70;;;17.40;99.90;;;;;;5099745;28;20456;-61
2022/08/30 02:48:12;;;;;;;5.33;4.10;;;17.40;99.90;;;;;;5099055;28;20477;-61
2022/08/30 02:50:40;;;;;;;9.33;4.40;;;17.40;99.90;;;;;;5098636;28;20517;-55
2022/08/30 02:53:07;;;;;;;6.00;4.50;;;17.40;99.90;;;;;;5098940;28;20906;-59
2022/08/30 02:55:34;;;;;;;6.30;4.57;;;17.30;99.90;;;;;;5098469;28;20452;-56
2022/08/30 02:58:01;;;;;;;4.30;3.60;;;17.30;99.90;;;;;;5097902;28;20453;-60
2022/08/30 03:00:28;;;;;;;7.50;5.00;;;17.30;99.90;;;;;;5097722;28;20524;-56
2022/08/30 03:02:55;;;;;;;5.30;4.07;;;17.30;99.90;;;;;;5097920;28;20488;-54
2022/08/30 03:05:23;;;;;;;5.63;4.30;;;17.20;99.90;;;;;;5097840;28;20450;-60
2022/08/30 03:07:50;;;;;;;11.77;5.47;;;17.20;99.90;;;;;;5098240;28;20826;-59
2022/08/30 03:10:17;;;;;;;7.97;4.07;;;17.10;99.90;;;;;;5098132;28;20441;-60
2022/08/30 03:12:46;;;;;;;4.97;4.47;;;17.20;99.90;;;;;;5097707;28;20541;-59
2022/08/30 03:15:14;;;;;;;6.00;4.73;;;17.10;99.90;;;;;;5097831;28;20449;-56
2022/08/30 03:17:41;;;;;;;6.23;4.27;;;17.10;99.90;;;;;;5097778;28;20461;-59
2022/08/30 03:20:10;;;;;;;8.07;5.60;;;17.10;99.90;;;;;;5098034;28;20481;-57
2022/08/30 03:22:39;;;;;;;10.63;5.20;;;17.00;99.90;;;;;;5097813;28;20465;-60
2022/08/30 03:25:07;;;;;;;6.57;5.10;;;17.00;99.90;;;;;;5099384;28;20441;-60
2022/08/30 03:27:34;;;;;;;5.67;4.60;;;17.00;99.90;;;;;;5101611;28;20982;-61
2022/08/30 03:30:01;;;;;;;8.93;5.57;;;17.00;99.90;;;;;;5098920;28;20452;-60
2022/08/30 03:32:28;;;;;;;5.83;5.00;;;17.00;99.90;;;;;;5098069;28;20441;-60
2022/08/30 03:34:54;;;;;;;10.27;6.37;;;17.00;99.90;;;;;;5097367;28;20441;-60
2022/08/30 03:37:21;;;;;;;5.73;4.80;;;17.00;99.90;;;;;;5097651;28;20496;-56
2022/08/30 03:39:49;;;;;;;5.73;4.60;;;16.90;99.90;;;;;;5097416;28;20979;-59
2022/08/30 03:42:16;;;;;;;7.83;5.20;;;16.90;99.90;;;;;;5097362;28;20456;-60
2022/08/30 03:44:43;;;;;;;7.03;5.27;;;16.90;99.90;;;;;;5096890;28;20491;-59
2022/08/30 03:47:10;;;;;;;7.50;5.80;;;16.90;99.90;;;;;;5097549;28;20469;-56
2022/08/30 03:49:37;;;;;;;9.10;5.77;;;16.90;99.90;;;;;;5097127;28;20441;-57
2022/08/30 03:52:07;;;;;;;9.00;5.10;;;16.90;99.90;;;;;;5097744;28;20836;-61
2022/08/30 03:54:33;;;;;;;7.07;5.27;;;17.00;99.90;;;;;;5100676;28;20476;-57
2022/08/30 03:57:01;;;;;;;7.87;6.17;;;17.00;99.90;;;;;;5099043;28;20750;-58
2022/08/30 03:59:28;;;;;;;8.20;5.73;;;17.00;99.90;;;;;;5097435;28;20436;-60
2022/08/30 04:01:55;;;;;;;8.03;5.40;;;17.00;99.90;;;;;;5096891;28;20560;-58
2022/08/30 04:04:22;;;;;;;7.73;5.20;;;17.00;99.90;;;;;;5097081;28;20445;-57
2022/08/30 04:06:49;;;;;;;7.33;5.63;;;17.00;99.90;;;;;;5096788;28;20473;-54
2022/08/30 04:09:16;;;;;;;9.10;5.30;;;17.10;99.90;;;;;;5096966;28;20444;-60
2022/08/30 04:11:43;;;;;;;6.83;5.57;;;17.10;99.90;;;;;;5097176;28;20468;-62
2022/08/30 04:14:11;;;;;;;5.33;4.63;;;17.10;99.90;;;;;;5097036;28;20471;-60
2022/08/30 04:16:38;;;;;;;7.90;5.67;;;17.10;99.90;;;;;;5097041;28;20812;-57
2022/08/30 04:19:05;;;;;;;4.90;4.07;;;17.10;99.90;;;;;;5096856;28;20508;-56
2022/08/30 04:21:32;;;;;;;6.90;4.97;;;17.10;99.90;;;;;;5096770;28;20477;-62
2022/08/30 04:23:59;;;;;;;5.70;4.70;;;17.10;99.90;;;;;;5095599;28;20465;-60
2022/08/30 04:26:26;;;;;;;6.87;4.70;;;17.10;99.90;;;;;;5096908;28;20464;-58
2022/08/30 04:28:53;;;;;;;4.97;4.30;;;17.10;99.90;;;;;;5096721;28;20469;-59
2022/08/30 04:31:22;;;;;;;4.93;4.47;;;17.10;99.90;;;;;;5097198;28;20545;-59
2022/08/30 04:33:49;;;;;;;5.83;4.20;;;17.10;99.90;;;;;;5098429;28;20441;-59
2022/08/30 04:36:16;;;;;;;6.73;4.80;;;17.10;99.90;;;;;;5096718;28;20552;-60
2022/08/30 04:38:43;;;;;;;7.83;5.10;;;17.20;99.90;;;;;;5098129;28;20460;-60
2022/08/30 04:41:15;;;;;;;7.10;5.10;;;17.20;99.90;;;;;;5100049;28;20485;-62
2022/08/30 04:43:43;;;;;;;5.13;4.63;;;17.20;99.90;;;;;;5097881;28;20429;-60
2022/08/30 04:46:12;;;;;;;5.37;4.50;;;17.20;99.90;;;;;;5096337;28;20555;-60
2022/08/30 04:48:40;;;;;;;5.77;4.13;;;17.20;99.90;;;;;;5097147;28;20449;-58
2022/08/30 04:51:09;;;;;;;6.23;5.17;;;17.20;99.90;;;;;;5096262;28;20465;-58
2022/08/30 04:53:40;;;;;;;5.03;4.03;;;17.30;99.90;;;;;;5096319;28;20442;-60
2022/08/30 04:56:08;;;;;;;6.67;5.33;;;17.30;99.90;;;;;;5096274;28;20445;-56
2022/08/30 04:58:36;;;;;;;6.13;4.60;;;17.30;99.90;;;;;;5095995;28;20530;-60
2022/08/30 05:01:03;;;;;;;4.90;3.70;;;17.30;99.90;;;;;;5096082;28;20492;-59
2022/08/30 05:03:30;;;;;;;4.90;4.20;;;17.30;99.90;;;;;;5095882;28;20461;-60
2022/08/30 05:05:58;;;;;;;5.40;4.73;;;17.30;99.90;;;;;;5096283;28;20533;-60
2022/08/30 05:08:25;;;;;;;6.07;4.50;;;17.40;99.90;;;;;;5098965;28;20473;-63
2022/08/30 05:10:52;;;;;;;6.43;4.70;;;17.40;99.90;;;;;;5097187;28;20460;-54
2022/08/30 05:13:21;;;;;;;5.43;4.40;;;17.50;99.90;;;;;;5095950;28;20472;-59
2022/08/30 05:15:48;;;;;;;6.13;4.37;;;17.40;99.90;;;;;;5096461;28;20454;-59
2022/08/30 05:18:15;;;;;;;5.57;4.50;;;17.50;99.90;;;;;;5097921;28;20471;-59
2022/08/30 05:20:42;;;;;;;6.70;4.30;;;17.50;99.90;;;;;;5100457;28;20476;-57
2022/08/30 05:23:11;;;;;;;6.60;4.30;;;17.50;99.90;;;;;;5097846;28;20529;-59
2022/08/30 05:25:39;;;;;;;8.10;5.83;;;17.50;99.90;;;;;;5096031;28;20712;-59
2022/08/30 05:28:06;;;;;;;7.60;4.47;;;17.50;99.90;;;;;;5095721;28;20460;-55
2022/08/30 05:30:35;;;;;;;6.23;4.30;;;17.60;99.90;;;;;;5095708;28;20548;-55
2022/08/30 05:33:03;;;;;;;6.73;5.33;;;17.60;99.90;;;;;;5095996;28;20441;-59
2022/08/30 05:35:29;;;;;;;7.97;5.77;;;17.60;99.90;;;;;;5097618;28;20552;-59
2022/08/30 05:37:56;;;;;;;6.50;5.23;;;17.60;99.90;;;;;;5099522;28;20480;-60
2022/08/30 05:40:24;;;;;;;6.40;5.10;;;17.60;99.90;;;;;;5100153;28;20508;-60
2022/08/30 05:42:51;;;;;;;5.53;4.63;;;17.60;99.90;;;;;;5100086;28;20449;-60
2022/08/30 05:45:18;;;;;;;7.40;5.93;;;17.60;99.90;;;;;;5102728;28;20461;-61
2022/08/30 05:47:46;;;;;;;8.87;5.27;;;17.60;99.90;;;;;;5097515;28;20938;-59
2022/08/30 05:50:14;;;;;;;8.57;5.13;;;17.60;99.90;;;;;;5108526;28;20808;-60
2022/08/30 05:52:43;;;;;;;6.60;4.90;;;17.60;99.90;;;;;;5110105;28;20549;-58
2022/08/30 05:55:11;;;;;;;8.10;4.97;;;17.70;99.90;;;;;;5079710;28;20508;-55
2022/08/30 05:57:40;;;;;;;5.97;4.47;;;17.70;99.90;;;;;;5083704;28;20488;-59
2022/08/30 06:00:10;;;;;;;5.83;4.20;;;17.70;99.90;;;;;;5080329;28;20792;-57
2022/08/30 06:02:37;;;;;;;6.53;4.40;;;17.80;99.90;;;;;;5079294;28;20494;-56
2022/08/30 06:05:04;;;;;;;6.93;5.30;;;17.80;99.90;;;;;;5079722;28;20439;-61
2022/08/30 06:07:31;;;;;;;7.80;5.03;;;17.90;99.90;;;;;;5081003;28;20527;-60
2022/08/30 06:09:58;;;;;;;5.93;4.63;;;18.00;99.90;;;;;;5093666;28;20438;-60
2022/08/30 06:12:25;;;;;;;5.20;3.90;;;18.10;99.90;;;;;;5100344;28;20433;-63
2022/08/30 06:14:53;;;;;;;6.10;5.13;;;18.10;99.90;;;;;;5096613;28;20473;-63
2022/08/30 06:17:20;;;;;;;7.03;5.17;;;18.20;99.90;;;;;;5100252;28;20507;-62
2022/08/30 06:19:47;;;;;;;6.20;4.70;;;18.30;99.90;;;;;;5110198;28;21174;-60
2022/08/30 06:22:14;;;;;;;5.03;4.23;;;18.30;99.90;;;;;;5106524;28;20503;-59
2022/08/30 06:24:40;;;;;;;5.63;4.93;;;18.30;99.90;;;;;;5101032;28;20555;-62
2022/08/30 06:27:07;;;;;;;6.90;5.13;;;18.40;99.90;;;;;;5101472;28;20445;-59
2022/08/30 06:29:34;;;;;;;5.80;4.37;;;18.50;99.90;;;;;;5092956;28;20480;-57
2022/08/30 06:32:03;;;;;;;6.30;5.20;;;18.60;99.90;;;;;;5085035;28;20439;-55
2022/08/30 06:34:30;;;;;;;6.90;4.77;;;18.70;99.90;;;;;;5080391;28;20596;-59
2022/08/30 06:36:57;;;;;;;6.40;4.87;;;18.80;99.90;;;;;;5094185;28;20442;-59
2022/08/30 06:39:24;;;;;;;5.67;5.00;;;19.00;99.90;;;;;;5121795;28;20475;-60
2022/08/30 06:41:51;;;;;;;8.27;5.33;;;19.00;99.90;;;;;;5121340;28;20486;-59
2022/08/30 06:44:17;;;;;;;5.70;4.30;;;19.10;99.90;;;;;;5126232;28;20551;-61
2022/08/30 06:46:44;;;;;;;5.20;4.53;;;19.20;99.90;;;;;;5103261;28;20444;-59
2022/08/30 06:49:13;;;;;;;7.10;4.73;;;19.20;99.90;;;;;;5082241;28;20446;-59
2022/08/30 06:51:40;;;;;;;6.47;4.80;;;19.30;99.90;;;;;;5099469;28;20540;-59
2022/08/30 06:54:08;;;;;;;6.50;4.90;;;19.40;99.90;;;;;;5081024;28;20450;-55
2022/08/30 06:56:35;;;;;;;7.27;4.50;;;19.40;99.90;;;;;;5081194;28;20513;-62
2022/08/30 06:59:01;;;;;;;7.10;5.00;;;19.40;99.90;;;;;;5079420;28;20458;-57
2022/08/30 07:01:29;;;;;;;6.83;5.20;;;19.40;99.90;;;;;;5079863;28;20490;-57
2022/08/30 07:03:57;;;;;;;7.10;5.13;;;19.40;99.90;;;;;;5080998;28;20537;-60
2022/08/30 07:06:28;;;;;;;9.00;5.93;;;19.30;99.90;;;;;;5082547;28;20557;-54
2022/08/30 07:08:55;;;;;;;5.73;4.47;;;19.30;99.90;;;;;;5078370;28;20443;-60
2022/08/30 07:11:29;;;;;;;5.50;4.37;;;19.40;99.90;;;;;;5076713;28;20914;-59
2022/08/30 07:13:56;;;;;;;7.47;5.13;;;19.40;99.90;;;;;;5076232;28;20879;-60
2022/08/30 07:16:24;;;;;;;8.57;5.03;;;19.50;99.90;;;;;;5076457;28;20449;-60
2022/08/30 07:18:50;;;;;;;7.17;5.67;;;19.60;99.90;;;;;;5077052;28;20557;-63
2022/08/30 07:21:19;;;;;;;6.60;5.07;;;19.70;99.90;;;;;;5077158;28;20687;-56
2022/08/30 07:23:48;;;;;;;11.80;5.10;;;19.80;99.90;;;;;;5076832;28;20545;-69
2022/08/30 07:26:17;;;;;;;6.70;5.50;;;19.90;99.90;;;;;;5076781;28;20458;-57
2022/08/30 07:28:46;;;;;;;7.90;5.13;;;20.10;99.90;;;;;;5076110;28;20955;-59
2022/08/30 07:31:14;;;;;;;10.00;5.10;;;20.20;99.90;;;;;;5076183;28;20446;-60
2022/08/30 07:33:41;;;;;;;7.90;4.80;;;20.30;99.90;;;;;;5075717;28;20456;-58
2022/08/30 07:36:09;;;;;;;10.83;5.40;;;20.40;99.90;;;;;;5076195;28;20442;-59
2022/08/30 07:38:36;;;;;;;8.07;5.97;;;20.50;99.90;;;;;;5076668;28;20450;-60
2022/08/30 07:41:05;;;;;;;7.67;5.50;;;20.50;99.90;;;;;;5075653;28;20804;-55
2022/08/30 07:43:33;;;;;;;6.67;5.07;;;20.60;99.90;;;;;;5076118;28;20451;-56
2022/08/30 07:46:02;;;;;;;6.17;5.10;;;20.50;99.90;;;;;;5076212;28;20951;-62
2022/08/30 07:48:29;;;;;;;6.00;4.80;;;20.50;99.90;;;;;;5075928;28;20442;-64
2022/08/30 07:50:55;;;;;;;9.27;5.20;;;20.40;99.90;;;;;;5076489;28;20480;-59
2022/08/30 07:53:22;;;;;;;5.80;4.30;;;20.40;99.90;;;;;;5076390;28;20442;-61
2022/08/30 07:55:49;;;;;;;6.60;4.70;;;20.30;99.90;;;;;;5075793;28;20438;-59
2022/08/30 07:58:17;;;;;;;8.40;5.00;;;20.30;99.90;;;;;;5075468;28;20529;-59
2022/08/30 08:00:44;;;;;;;5.10;4.13;;;20.30;99.90;;;;;;5075363;28;20466;-60
2022/08/30 08:03:11;;;;;;;6.10;4.70;;;20.30;99.90;;;;;;5075547;28;20509;-59
2022/08/30 08:05:39;;;;;;;6.60;4.83;;;20.40;99.90;;;;;;5076142;28;20538;-59
2022/08/30 08:08:06;;;;;;;4.93;4.10;;;20.60;99.90;;;;;;5075390;28;20505;-60
2022/08/30 08:10:35;;;;;;;7.33;5.60;;;21.00;99.90;;;;;;5075189;28;20986;-60
2022/08/30 08:13:02;;;;;;;6.03;4.70;;;21.40;99.90;;;;;;5076280;28;20474;-59
2022/08/30 08:15:30;;;;;;;7.20;5.00;;;21.50;99.90;;;;;;5075279;28;20430;-61
2022/08/30 08:17:57;;;;;;;5.80;5.00;;;21.50;99.90;;;;;;5075377;28;20444;-59
2022/08/30 08:20:24;;;;;;;6.50;5.47;;;21.50;99.90;;;;;;5076548;28;20453;-60
2022/08/30 08:22:51;;;;;;;5.50;3.67;;;21.50;99.90;;;;;;5075214;28;20475;-59
2022/08/30 08:25:18;;;;;;;5.37;3.87;;;21.50;99.90;;;;;;5074966;28;20470;-59
2022/08/30 08:27:47;;;;;;;6.70;4.50;;;21.50;99.90;;;;;;5075357;28;20446;-58
2022/08/30 08:30:14;;;;;;;6.47;5.20;;;21.50;99.90;;;;;;5075619;28;20470;-62
2022/08/30 08:32:43;;;;;;;5.43;4.53;;;21.50;99.90;;;;;;5075168;28;20858;-58
2022/08/30 08:35:11;;;;;;;5.47;4.20;;;21.40;99.90;;;;;;5074478;28;20935;-56
2022/08/30 08:37:38;;;;;;;8.00;4.20;;;21.30;99.90;;;;;;5075112;28;20465;-64
2022/08/30 08:40:06;;;;;;;4.60;4.10;;;21.30;99.90;;;;;;5075354;28;20553;-60
2022/08/30 08:42:46;;;;;;;4.83;4.20;;;21.40;99.90;;;;;;5074654;28;20582;-57
2022/08/30 08:45:16;;;;;;;5.67;3.47;;;21.50;99.90;;;;;;5075007;28;20491;-59
2022/08/30 08:47:56;;;;;;;5.87;3.73;;;21.80;99.90;;;;;;5075681;28;20891;-59
2022/08/30 08:50:24;;;;;;;4.70;3.80;;;22.10;99.90;;;;;;5074498;28;20440;-60
2022/08/30 08:55:43;;;;;;;3.73;2.90;;;22.80;99.90;;;;;;5074977;28;20491;-58
2022/08/30 08:58:20;;;;;;;3.63;2.57;;;23.60;99.90;;;;;;5074533;28;20467;-60
2022/08/30 09:00:46;;;;;;;3.53;2.80;;;24.40;99.90;;;;;;5074546;28;20434;-59
2022/08/30 09:03:15;;;;;;;3.50;3.07;;;25.00;99.90;;;;;;5074055;28;20810;-60
2022/08/30 09:05:44;;;;;;;4.10;2.67;;;25.50;99.90;;;;;;5074843;28;20465;-59
2022/08/30 09:08:13;;;;;;;2.63;2.30;;;25.70;99.90;;;;;;5075064;28;20477;-59
2022/08/30 09:10:55;;;;;;;4.13;2.30;;;25.80;99.90;;;;;;5073527;28;20442;-60
2022/08/30 09:13:23;;;;;;;2.80;2.50;;;25.70;99.90;;;;;;5074848;28;20556;-59
2022/08/30 09:15:51;;;;;;;3.57;2.17;;;25.50;99.90;;;;;;5074877;28;20476;-59
2022/08/30 09:18:19;;;;;;;3.40;3.10;;;25.10;99.90;;;;;;5074301;28;20859;-57
2022/08/30 09:20:48;;;;;;;3.77;2.57;;;24.60;99.90;;;;;;5074416;28;20565;-59
2022/08/30 09:23:26;;;;;;;3.87;2.50;;;24.30;99.90;;;;;;5074968;28;20473;-63
2022/08/30 09:25:55;;;;;;;2.40;2.17;;;24.00;99.90;;;;;;5076123;28;20938;-54
2022/08/30 09:28:26;;;;;;;4.67;2.20;;;23.80;99.90;;;;;;5074386;28;20950;-60
2022/08/30 09:31:05;;;;;;;3.13;2.60;;;23.60;99.90;;;;;;5073879;28;20505;-53
2022/08/30 09:33:35;;;;;;;3.20;2.20;;;23.50;99.90;;;;;;5073865;28;20426;-57
2022/08/30 09:36:18;;;;;;;1.70;1.60;;;23.40;99.90;;;;;;5074001;28;20465;-59
2022/08/30 09:38:45;;;;;;;2.33;1.80;;;23.40;99.90;;;;;;5073648;28;20954;-58
2022/08/30 09:41:34;;;;;;;1.83;1.53;;;23.30;99.90;;;;;;5074186;28;20771;-59
2022/08/30 09:44:08;;;;;;;1.80;1.70;;;23.20;99.90;;;;;;5074005;28;20744;-58
2022/08/30 09:46:43;;;;;;;2.53;2.03;;;23.00;99.90;;;;;;5074806;28;20457;-65
2022/08/30 09:49:28;;;;;;;1.73;1.40;;;22.80;99.90;;;;;;5076603;28;20532;-60
2022/08/30 09:52:11;;;;;;;3.63;1.60;;;22.60;99.90;;;;;;5074198;28;20430;-61
2022/08/30 09:54:45;;;;;;;1.93;1.37;;;22.40;99.90;;;;;;5073935;28;20500;-60
2022/08/30 09:57:23;;;;;;;2.03;1.33;;;22.40;99.90;;;;;;5074841;28;20525;-63
2022/08/30 09:59:57;;;;;;;1.70;1.60;;;22.40;99.90;;;;;;5075520;28;20553;-60
2022/08/30 10:02:56;;;;;;;2.03;1.50;;;22.40;99.90;;;;;;5073836;28;20500;-59
2022/08/30 10:05:31;;;;;;;3.67;1.90;;;22.60;99.90;;;;;;5073457;28;20480;-58
2022/08/30 10:08:09;;;;;;;3.77;1.60;;;22.80;99.90;;;;;;5073682;28;20430;-59
2022/08/30 10:10:43;;;;;;;4.13;3.27;;;22.80;99.90;;;;;;5073222;28;20470;-61
2022/08/30 10:13:36;;;;;;;2.53;1.90;;;22.80;99.90;;;;;;5073638;28;20427;-60
2022/08/30 10:16:13;;;;;;;5.33;2.03;;;22.90;99.90;;;;;;5073288;28;20501;-53
2022/08/30 10:18:47;;;;;;;2.90;1.67;;;22.90;99.90;;;;;;5073644;28;20555;-59
2022/08/30 10:21:24;;;;;;;5.10;3.20;;;23.00;99.90;;;;;;5076761;28;20530;-58
2022/08/30 10:23:57;;;;;;;2.73;2.10;;;23.00;99.90;;;;;;5078445;28;20835;-58
2022/08/30 10:26:30;;;;;;;8.07;4.63;;;22.90;99.90;;;;;;5077333;28;20934;-59
2022/08/30 10:29:01;;;;;;;2.80;1.93;;;23.00;99.90;;;;;;5077260;28;20464;-59
2022/08/30 10:31:37;;;;;;;3.00;2.07;;;23.10;99.90;;;;;;5077206;28;20430;-59
2022/08/30 10:34:08;;;;;;;3.40;2.30;;;23.30;99.90;;;;;;5076995;28;20659;-60
2022/08/30 10:36:43;;;;;;;2.17;1.97;;;23.50;99.90;;;;;;5076970;28;20496;-59
2022/08/30 10:39:13;;;;;;;3.20;2.03;;;23.70;99.90;;;;;;5077389;28;20418;-60
2022/08/30 10:41:44;;;;;;;3.20;2.17;;;24.00;99.90;;;;;;5076660;28;20516;-60
2022/08/30 10:44:20;;;;;;;1.93;1.50;;;24.30;99.90;;;;;;5078467;28;20466;-61
2022/08/30 10:47:03;;;;;;;2.00;1.43;;;25.00;99.90;;;;;;5078428;28;20466;-60
2022/08/30 10:49:35;;;;;;;2.13;1.53;;;25.50;99.90;;;;;;5076854;28;20466;-55
2022/08/30 10:52:19;;;;;;;2.30;1.77;;;25.70;99.90;;;;;;5076709;28;20443;-57
2022/08/30 10:54:50;;;;;;;1.97;1.70;;;25.60;99.90;;;;;;5076831;28;20466;-55
2022/08/30 10:57:17;;;;;;;2.50;2.00;;;25.60;99.90;;;;;;5076834;28;20430;-59
2022/08/30 10:59:48;;;;;;;3.07;1.60;;;25.40;99.90;;;;;;5078133;28;20989;-59
2022/08/30 11:02:39;;;;;;;1.97;1.70;;;25.30;99.90;;;;;;5082621;28;20526;-59
2022/08/30 11:05:37;;;;;;;1.20;1.10;;;25.10;99.90;;;;;;5074857;28;20525;-59
2022/08/30 11:08:14;;;;;;;1.90;1.70;;;24.90;99.90;;;;;;5055702;28;20461;-59
2022/08/30 11:10:52;;;;;;;7.10;1.63;;;24.90;99.90;;;;;;5083069;28;20462;-59
2022/08/30 11:13:23;;;;;;;1.50;1.37;;;24.70;99.90;;;;;;5081592;28;20515;-64
2022/08/30 11:15:57;;;;;;;1.67;1.50;;;24.60;99.90;;;;;;5077228;28;20811;-58
2022/08/30 11:18:26;;;;;;;2.10;1.83;;;24.60;99.90;;;;;;5076273;28;20533;-62
2022/08/30 11:20:55;;;;;;;1.83;1.47;;;24.60;99.90;;;;;;5076379;28;20458;-56
2022/08/30 11:23:29;;;;;;;2.07;1.90;;;24.80;99.90;;;;;;5076006;28;20496;-60
2022/08/30 11:25:59;;;;;;;2.80;1.97;;;24.90;99.90;;;;;;5091746;28;20478;-35
2022/08/30 11:29:03;;;;;;;2.53;1.40;;;25.10;99.90;;;;;;5100180;28;20453;-34
2022/08/30 11:31:39;;;;;;;4.60;3.33;;;25.30;99.90;;;;;;5100152;28;20445;-37
2022/08/30 11:34:09;;;;;;;7.83;2.10;;;25.40;99.90;;;;;;5099423;28;20469;-36
2022/08/30 11:37:09;;;;;;;6.60;1.97;;;25.40;99.90;;;;;;5100122;28;20454;-36
2022/08/30 11:39:50;;;;;;;2.00;1.47;;;25.50;99.90;;;;;;5099573;28;20530;-36
2022/08/30 11:42:28;;;;;;;7.03;2.27;;;25.60;99.90;;;;;;5099982;28;20446;-38
2022/08/30 11:45:34;;;;;;;3.10;1.43;;;25.70;99.90;;;;;;5099689;28;20502;-38
2022/08/30 11:48:04;;;;;;;2.00;1.60;;;25.60;99.90;;;;;;5099740;28;20439;-33
2022/08/30 11:50:35;;;;;;;2.90;1.63;;;25.50;99.90;;;;;;5099728;28;20434;-36
2022/08/30 11:53:13;;;;;;;2.00;1.70;;;25.40;99.90;;;;;;5099821;28;20418;-35
2022/08/30 11:56:00;;;;;;;2.50;1.50;;;25.40;99.90;;;;;;5099699;28;20469;-35
2022/08/30 11:58:47;;;;;;;2.43;1.60;;;25.30;99.90;;;;;;5097675;28;20494;-37
2022/08/30 12:01:19;;;;;;;2.43;1.87;;;25.20;99.90;;;;;;5099767;28;20439;-33
2022/08/30 12:03:58;;;;;;;3.47;2.30;;;25.20;99.90;;;;;;5099471;28;20465;-35
2022/08/30 12:06:52;;;;;;;2.40;1.50;;;25.20;99.90;;;;;;5099430;28;20438;-37
2022/08/30 12:10:02;;;;;;;2.33;2.13;;;25.20;99.90;;;;;;5099576;28;20478;-34
2022/08/30 12:13:09;;;;;;;2.87;1.77;;;25.20;99.90;;;;;;5099234;28;20458;-34
2022/08/30 12:15:53;;;;;;;3.53;1.80;;;25.10;99.90;;;;;;5099285;28;20477;-36
2022/08/30 12:18:29;;;;;;;3.03;1.63;;;25.10;99.90;;;;;;5099249;28;20482;-35
2022/08/30 12:21:09;;;;;;;2.00;1.60;;;25.20;99.90;;;;;;5099207;28;20411;-37
2022/08/30 12:23:41;;;;;;;2.00;1.40;;;25.20;99.90;;;;;;5099056;28;20501;-33
2022/08/30 12:26:18;;;;;;;1.63;1.30;;;25.30;99.90;;;;;;5099269;28;20410;-36
2022/08/30 12:28:49;;;;;;;1.60;1.40;;;25.40;99.90;;;;;;5098993;28;20441;-37
2022/08/30 12:31:19;;;;;;;2.73;1.70;;;25.50;99.90;;;;;;5099102;28;20423;-35
2022/08/30 12:33:47;;;;;;;1.60;1.30;;;25.60;99.90;;;;;;5098987;28;20411;-36
2022/08/30 12:36:17;;;;;;;2.77;1.70;;;25.60;99.90;;;;;;5098949;28;20482;-36
2022/08/30 12:38:50;;;;;;;3.23;1.60;;;25.60;99.90;;;;;;5098809;28;20455;-36
2022/08/30 12:41:21;;;;;;;4.20;1.90;;;25.50;99.90;;;;;;5098889;28;20476;-37
2022/08/30 12:43:51;;;;;;;2.50;1.83;;;25.40;99.90;;;;;;5098655;28;20476;-33
2022/08/30 12:46:20;;;;;;;5.73;1.63;;;25.40;99.90;;;;;;5097922;28;20460;-34
2022/08/30 12:48:49;;;;;;;5.73;1.80;;;25.60;99.90;;;;;;5098547;28;20435;-35
2022/08/30 12:51:36;;;;;;;2.03;1.83;;;25.70;99.90;;;;;;5098860;28;20462;-34
2022/08/30 12:54:08;;;;;;;1.83;1.40;;;25.80;99.90;;;;;;5098763;28;20422;-36
2022/08/30 12:56:52;;;;;;;2.77;1.70;;;25.70;99.90;;;;;;5098550;28;20434;-35
2022/08/30 12:59:41;;;;;;;2.03;1.70;;;25.70;99.90;;;;;;5097151;28;20450;-37
2022/08/30 13:02:12;;;;;;;1.67;1.30;;;25.70;99.90;;;;;;5098570;28;20468;-35
2022/08/30 13:04:45;;;;;;;1.80;1.57;;;25.70;99.90;;;;;;5098524;28;20494;-32
2022/08/30 13:07:12;;;;;;;6.90;1.83;;;25.70;99.90;;;;;;5098584;28;20415;-36